Time;durP1;ratioP1;P1;durP2;ratioP2;P2;SDS_P1;SDS_P2;PMS_P1;PMS_P2;Temp;Humidity;BMP_temperature;BMP_pressure;BME280_temperature;BME280_humidity;BME280_pressure;Samples;Min_cycle;Max_cycle;Signal;HPM_P1;HPM_P2
2022/03/21 00:00:56;;;;;;;27.20;15.17;;;;;;;0.60;72.14;-23832.13;5093140;28;20603;-70
2022/03/21 00:03:28;;;;;;;28.40;15.57;;;;;;;0.56;72.72;-23831.00;5093237;28;20165;-69
2022/03/21 00:05:54;;;;;;;26.07;14.73;;;;;;;0.47;71.67;-23828.41;5093042;28;20246;-68
2022/03/21 00:08:22;;;;;;;25.77;14.20;;;;;;;0.19;71.45;-23820.41;5092900;28;20546;-68
2022/03/21 00:10:49;;;;;;;22.17;13.10;;;;;;;0.45;70.28;-23827.84;5092896;28;20318;-69
2022/03/21 00:13:15;;;;;;;23.07;12.67;;;;;;;0.48;69.79;-23828.72;5074810;28;20196;-68
2022/03/21 00:15:49;;;;;;;24.67;12.90;;;;;;;0.22;70.15;-23821.41;5092943;28;20211;-71
2022/03/21 00:18:15;;;;;;;22.10;12.43;;;;;;;0.50;69.00;-23829.28;5092728;28;20644;-68
2022/03/21 00:20:43;;;;;;;21.20;12.37;;;;;;;0.35;68.78;-23825.00;5092721;28;20169;-69
2022/03/21 00:23:09;;;;;;;21.37;12.67;;;;;;;0.57;68.57;-23831.28;5092598;28;20199;-67
2022/03/21 00:25:34;;;;;;;22.17;12.07;;;;;;;0.48;68.84;-23828.72;5092676;28;20652;-68
2022/03/21 00:28:00;;;;;;;22.53;12.70;;;;;;;0.59;66.77;-23831.84;5092924;28;20636;-69
2022/03/21 00:30:26;;;;;;;20.53;11.93;;;;;;;0.52;66.03;-23829.84;5092699;28;20166;-69
2022/03/21 00:32:52;;;;;;;23.07;12.60;;;;;;;1.05;66.42;-23844.72;5092317;28;20227;-69
2022/03/21 00:35:19;;;;;;;19.70;11.97;;;;;;;0.73;65.70;-23835.88;5092539;28;20207;-68
2022/03/21 00:37:47;;;;;;;21.37;11.53;;;;;;;1.10;66.55;-23846.16;5074248;28;20169;-68
2022/03/21 00:40:15;;;;;;;19.57;11.57;;;;;;;0.63;66.21;-23833.00;5092101;28;20180;-69
2022/03/21 00:42:43;;;;;;;24.23;12.57;;;;;;;0.56;66.75;-23831.00;5092094;28;20179;-68
2022/03/21 00:45:12;;;;;;;21.67;12.10;;;;;;;0.68;67.79;-23834.28;5092028;28;20526;-68
2022/03/21 00:47:39;;;;;;;20.53;12.13;;;;;;;0.90;67.86;-23840.59;5092573;28;20172;-69
2022/03/21 00:50:07;;;;;;;22.60;12.73;;;;;;;0.53;67.59;-23830.13;5092168;28;20600;-68
2022/03/21 00:52:39;;;;;;;21.20;11.83;;;;;;;0.96;67.77;-23842.31;5074016;28;20640;-69
2022/03/21 00:55:05;;;;;;;25.10;12.03;;;;;;;0.79;68.22;-23837.44;5092476;28;20612;-69
2022/03/21 00:57:31;;;;;;;23.53;11.87;;;;;;;1.15;67.36;-23847.75;5073850;28;20181;-68
2022/03/21 00:59:57;;;;;;;22.57;12.43;;;;;;;0.60;67.63;-23832.13;5091794;28;20231;-68
2022/03/21 01:02:22;;;;;;;22.30;13.00;;;;;;;1.08;67.82;-23845.59;5092442;28;20173;-69
2022/03/21 01:04:48;;;;;;;25.53;13.70;;;;;;;1.00;68.86;-23843.31;5092215;28;20176;-69
2022/03/21 01:07:13;;;;;;;23.13;13.50;;;;;;;0.43;70.46;-23827.28;5074282;28;20634;-69
2022/03/21 01:09:38;;;;;;;23.73;13.70;;;;;;;0.44;70.71;-23827.56;5092018;28;20696;-68
2022/03/21 01:12:06;;;;;;;25.83;14.07;;;;;;;0.37;70.73;-23825.56;5091559;28;20204;-68
2022/03/21 01:14:32;;;;;;;27.90;14.83;;;;;;;0.33;71.07;-23824.41;5091662;28;20616;-68
2022/03/21 01:16:58;;;;;;;24.83;13.17;;;;;;;0.82;70.31;-23838.44;5092018;28;20165;-68
2022/03/21 01:19:24;;;;;;;27.70;14.43;;;;;;;0.87;71.18;-23839.88;5091865;28;20264;-68
2022/03/21 01:21:49;;;;;;;26.50;14.63;;;;;;;0.62;71.67;-23832.56;5091862;28;20177;-68
2022/03/21 01:24:15;;;;;;;26.63;13.40;;;;;;;0.43;72.15;-23827.28;5091417;28;20233;-69
2022/03/21 01:26:40;;;;;;;24.27;14.13;;;;;;;0.78;72.72;-23837.16;5090078;28;20650;-69
2022/03/21 01:29:05;;;;;;;25.77;13.70;;;;;;;0.53;70.95;-23830.13;5090986;28;20267;-68
2022/03/21 01:31:31;;;;;;;22.77;13.10;;;;;;;0.47;70.76;-23828.41;5090834;28;20284;-68
2022/03/21 01:33:57;;;;;;;24.17;12.73;;;;;;;0.54;71.15;-23830.28;5091105;28;20197;-68
2022/03/21 01:36:23;;;;;;;21.83;12.40;;;;;;;0.82;71.46;-23838.44;5090945;28;20546;-68
2022/03/21 01:38:48;;;;;;;22.67;12.47;;;;;;;0.98;70.37;-23842.88;5091344;28;20166;-68
2022/03/21 01:41:13;;;;;;;20.67;12.00;;;;;;;0.85;70.35;-23839.28;5091103;28;20550;-67
2022/03/21 01:44:02;;;;;;;19.57;11.83;;;;;;;0.36;69.30;-23825.41;5090795;28;20176;-67
2022/03/21 01:46:29;;;;;;;19.40;11.20;;;;;;;0.98;68.14;-23842.88;5091026;28;20619;-69
2022/03/21 01:48:56;;;;;;;24.10;12.50;;;;;;;1.06;67.81;-23845.03;5091353;28;20267;-68
2022/03/21 01:51:24;;;;;;;22.50;12.00;;;;;;;1.01;67.68;-23843.59;5092678;28;20200;-68
2022/03/21 01:56:40;;;;;;;19.00;11.37;;;;;;;1.23;65.90;-23849.88;5095246;28;20534;-69
2022/03/21 01:59:12;;;;;;;17.37;10.97;;;;;;;1.19;66.15;-23848.75;5093621;28;20169;-71
2022/03/21 02:01:40;;;;;;;24.20;10.90;;;;;;;1.13;67.04;-23847.03;5095637;28;20235;-69
2022/03/21 02:04:10;;;;;;;18.53;10.83;;;;;;;1.13;70.72;-23847.03;5095699;28;20179;-70
2022/03/21 02:06:37;;;;;;;19.37;10.97;;;;;;;1.22;70.25;-23849.72;5095157;28;20183;-69
2022/03/21 02:09:07;;;;;;;17.30;10.43;;;;;;;0.74;68.94;-23836.00;5095490;28;20170;-69
2022/03/21 02:11:33;;;;;;;18.20;10.90;;;;;;;1.07;70.34;-23845.31;5095461;28;20732;-68
2022/03/21 02:14:01;;;;;;;20.10;11.60;;;;;;;0.98;71.51;-23842.72;5095314;28;20268;-69
2022/03/21 02:16:28;;;;;;;21.77;12.17;;;;;;;0.94;71.03;-23841.72;5095326;28;20173;-68
2022/03/21 02:18:55;;;;;;;24.10;12.07;;;;;;;0.71;71.92;-23835.16;5095004;28;20560;-68
2022/03/21 02:21:47;;;;;;;23.53;12.30;;;;;;;0.93;71.86;-23841.44;5095058;28;20208;-68
2022/03/21 02:24:26;;;;;;;21.83;11.90;;;;;;;0.72;71.44;-23835.44;5095117;28;20177;-69
2022/03/21 02:26:52;;;;;;;20.70;12.23;;;;;;;0.44;71.16;-23827.56;5095130;28;20168;-69
2022/03/21 02:29:18;;;;;;;20.77;12.03;;;;;;;0.98;68.33;-23842.88;5094864;28;20250;-69
2022/03/21 02:31:45;;;;;;;20.97;12.00;;;;;;;1.05;67.51;-23844.88;5095236;28;20219;-68
2022/03/21 02:34:10;;;;;;;20.40;12.03;;;;;;;1.14;65.22;-23847.44;5095594;28;20187;-69
2022/03/21 02:36:37;;;;;;;22.27;11.50;;;;;;;0.72;65.49;-23835.44;5095401;28;20290;-67
2022/03/21 02:39:03;;;;;;;17.47;10.50;;;;;;;1.03;65.96;-23844.16;5094957;28;20168;-69
2022/03/21 02:41:28;;;;;;;22.03;12.37;;;;;;;1.28;65.72;-23851.44;5094939;28;20206;-69
2022/03/21 02:43:58;;;;;;;23.50;11.97;;;;;;;0.82;66.69;-23838.28;5094718;28;20172;-68
2022/03/21 02:46:25;;;;;;;20.63;12.00;;;;;;;1.02;64.99;-23844.00;5093687;28;20177;-69
2022/03/21 02:48:54;;;;;;;21.37;11.80;;;;;;;1.07;66.86;-23845.31;5076618;28;20279;-69
2022/03/21 02:51:21;;;;;;;21.47;11.87;;;;;;;1.01;67.12;-23843.59;5094261;28;20177;-68
2022/03/21 02:53:49;;;;;;;19.93;11.80;;;;;;;1.29;65.09;-23851.75;5086773;28;20186;-68
2022/03/21 02:56:15;;;;;;;21.20;12.43;;;;;;;0.89;66.74;-23840.44;5074139;28;20208;-68
2022/03/21 02:58:41;;;;;;;23.20;12.63;;;;;;;1.13;68.55;-23847.03;5074026;28;20173;-69
2022/03/21 03:01:16;;;;;;;19.53;11.97;;;;;;;0.87;67.24;-23839.88;5073892;28;20170;-69
2022/03/21 03:03:42;;;;;;;22.10;12.33;;;;;;;0.80;66.43;-23837.72;5074141;28;20692;-69
2022/03/21 03:06:08;;;;;;;21.93;12.27;;;;;;;1.15;66.83;-23847.59;5074498;28;20180;-69
2022/03/21 03:08:35;;;;;;;21.40;12.20;;;;;;;0.30;67.41;-23823.56;5073978;28;20235;-70
2022/03/21 03:11:01;;;;;;;26.30;12.80;;;;;;;0.84;66.79;-23838.88;5074228;28;20222;-69
2022/03/21 03:13:26;;;;;;;22.70;12.67;;;;;;;1.13;66.68;-23847.03;5073900;28;20562;-69
2022/03/21 03:15:52;;;;;;;24.73;13.70;;;;;;;0.55;66.51;-23830.56;5073902;28;20251;-68
2022/03/21 03:18:18;;;;;;;22.57;12.70;;;;;;;1.09;66.58;-23845.88;5073966;28;20224;-70
2022/03/21 03:20:48;;;;;;;21.57;11.83;;;;;;;1.04;66.92;-23844.44;5073647;28;20178;-69
2022/03/21 03:23:14;;;;;;;24.00;12.87;;;;;;;0.94;67.26;-23841.59;5073834;28;20169;-69
2022/03/21 03:25:39;;;;;;;22.77;12.90;;;;;;;0.08;66.98;-23817.41;5073364;28;20197;-69
2022/03/21 03:28:05;;;;;;;25.17;12.10;;;;;;;0.79;68.24;-23837.56;5073957;28;20184;-68
2022/03/21 03:30:30;;;;;;;20.87;12.63;;;;;;;-0.51;67.47;-23800.78;5073702;28;20216;-68
2022/03/21 03:32:56;;;;;;;23.60;13.20;;;;;;;0.30;68.39;-23823.56;5073497;28;20284;-68
2022/03/21 03:35:21;;;;;;;27.03;13.13;;;;;;;0.84;68.77;-23838.88;5073235;28;20280;-69
2022/03/21 03:37:47;;;;;;;24.53;13.83;;;;;;;0.64;68.54;-23833.28;5055723;28;20188;-68
2022/03/21 03:40:13;;;;;;;27.20;14.37;;;;;;;0.66;69.18;-23833.84;5073316;28;20179;-69
2022/03/21 03:42:38;;;;;;;26.27;14.90;;;;;;;0.64;70.29;-23833.28;5073760;28;20184;-67
2022/03/21 03:45:04;;;;;;;28.47;15.87;;;;;;;0.45;70.87;-23827.84;5055310;28;20172;-68
2022/03/21 03:47:30;;;;;;;28.40;15.60;;;;;;;-0.18;73.49;-23809.94;5073306;28;20655;-68
2022/03/21 03:49:58;;;;;;;30.53;16.33;;;;;;;0.32;73.64;-23824.13;5055208;28;20268;-68
2022/03/21 03:52:23;;;;;;;33.90;17.17;;;;;;;-0.25;73.92;-23807.94;5073267;28;20254;-68
2022/03/21 03:54:49;;;;;;;30.33;16.73;;;;;;;-0.17;73.29;-23810.25;5072994;28;20364;-68
2022/03/21 03:57:15;;;;;;;34.13;17.00;;;;;;;0.12;74.43;-23818.41;5073401;28;20178;-69
2022/03/21 03:59:40;;;;;;;31.00;16.83;;;;;;;0.06;76.52;-23816.81;5089845;28;20183;-69
2022/03/21 04:02:06;;;;;;;34.07;16.97;;;;;;;-0.01;77.15;-23814.81;5078715;28;20568;-69
2022/03/21 04:04:31;;;;;;;32.77;16.47;;;;;;;-0.65;77.53;-23796.63;5093367;28;20212;-71
2022/03/21 04:06:56;;;;;;;29.47;16.10;;;;;;;-0.02;75.80;-23814.53;5064170;28;20301;-68
2022/03/21 04:09:22;;;;;;;32.07;16.07;;;;;;;-0.04;75.31;-23813.97;5072332;28;20287;-69
2022/03/21 04:11:47;;;;;;;26.90;15.50;;;;;;;-0.07;74.77;-23813.09;5072725;28;20194;-69
2022/03/21 04:14:13;;;;;;;32.27;16.10;;;;;;;-0.41;75.73;-23803.50;5072225;28;20243;-69
2022/03/21 04:16:43;;;;;;;27.17;15.87;;;;;;;-0.41;75.40;-23803.50;5072596;28;20260;-69
2022/03/21 04:19:08;;;;;;;30.13;16.47;;;;;;;-0.29;75.38;-23806.94;5073091;28;20237;-70
2022/03/21 04:21:34;;;;;;;30.47;15.03;;;;;;;-0.91;76.04;-23789.47;5084583;28;20272;-69
2022/03/21 04:24:00;;;;;;;35.57;15.83;;;;;;;-0.55;76.52;-23799.50;5083795;28;20212;-68
2022/03/21 04:26:26;;;;;;;27.50;15.73;;;;;;;-0.33;75.23;-23805.66;5084995;28;20205;-68
2022/03/21 04:28:52;;;;;;;29.83;14.80;;;;;;;-0.50;74.06;-23801.06;5085734;28;20182;-68
2022/03/21 04:31:18;;;;;;;27.70;15.23;;;;;;;-0.36;73.71;-23804.78;5065671;28;20184;-68
2022/03/21 04:33:43;;;;;;;28.60;14.37;;;;;;;-0.53;74.03;-23800.06;5084220;28;20240;-69
2022/03/21 04:36:10;;;;;;;27.20;14.53;;;;;;;-0.33;73.27;-23805.81;5085363;28;20669;-69
2022/03/21 04:38:35;;;;;;;26.27;14.70;;;;;;;0.02;71.65;-23815.53;5083355;28;20656;-68
2022/03/21 04:41:01;;;;;;;27.20;14.50;;;;;;;-0.34;72.61;-23805.50;5084914;28;20233;-69
2022/03/21 04:43:26;;;;;;;25.13;14.13;;;;;;;-0.39;72.66;-23804.06;5084529;28;20617;-68
2022/03/21 04:45:51;;;;;;;27.80;14.00;;;;;;;-0.55;72.13;-23799.50;5085041;28;20207;-68
2022/03/21 04:48:17;;;;;;;26.20;14.50;;;;;;;0.02;71.93;-23815.53;5083918;28;20187;-70
2022/03/21 04:50:43;;;;;;;32.70;15.43;;;;;;;0.19;70.74;-23820.41;5084383;28;20181;-68
2022/03/21 04:53:10;;;;;;;26.10;13.70;;;;;;;-0.31;71.97;-23806.22;5084150;28;20676;-69
2022/03/21 04:55:37;;;;;;;29.67;15.13;;;;;;;-0.08;72.60;-23812.97;5083694;28;20223;-69
2022/03/21 04:58:03;;;;;;;25.13;14.20;;;;;;;-0.01;72.08;-23814.81;5063142;28;20540;-68
2022/03/21 05:00:29;;;;;;;30.13;15.53;;;;;;;-0.10;72.55;-23812.38;5084122;28;20183;-68
2022/03/21 05:02:55;;;;;;;26.87;13.87;;;;;;;0.01;71.32;-23815.41;5082750;28;20189;-69
2022/03/21 05:05:24;;;;;;;26.43;14.10;;;;;;;0.31;72.81;-23824.00;5031447;28;20185;-68
2022/03/21 05:07:52;;;;;;;30.70;14.53;;;;;;;0.27;72.60;-23822.69;5085834;28;20202;-71
2022/03/21 05:10:18;;;;;;;26.30;14.33;;;;;;;0.30;72.36;-23823.56;5086560;28;20225;-70
2022/03/21 05:12:44;;;;;;;23.93;13.80;;;;;;;-0.63;72.77;-23797.19;5084033;28;20334;-69
2022/03/21 05:15:09;;;;;;;25.33;13.60;;;;;;;0.68;70.88;-23834.44;5083827;28;20237;-68
2022/03/21 05:17:35;;;;;;;24.73;14.83;;;;;;;0.41;70.54;-23826.72;5086882;28;20194;-69
2022/03/21 05:20:02;;;;;;;25.83;14.37;;;;;;;0.55;69.68;-23830.56;5068620;28;20278;-68
2022/03/21 05:22:27;;;;;;;30.70;14.30;;;;;;;0.89;70.42;-23840.44;5090755;28;20625;-69
2022/03/21 05:35:55;;;;;;;24.53;14.10;;;;;;;1.49;68.66;-23857.16;5090653;28;20271;-69
2022/03/21 05:38:25;;;;;;;23.33;14.07;;;;;;;1.41;68.31;-23854.88;5091117;28;20161;-68
2022/03/21 05:40:52;;;;;;;27.87;13.83;;;;;;;2.01;69.26;-23871.88;5073007;28;20194;-68
2022/03/21 05:43:19;;;;;;;23.30;14.03;;;;;;;2.40;66.28;-23882.88;5090725;28;20194;-69
2022/03/21 05:45:44;;;;;;;26.77;13.87;;;;;;;2.53;66.05;-23886.75;5091648;28;20177;-71
2022/03/21 05:50:54;;;;;;;34.37;14.07;;;;;;;2.41;62.21;-23883.16;5081067;28;20237;-69
2022/03/21 05:53:19;;;;;;;29.43;15.00;;;;;;;3.04;61.00;-23901.16;5090486;28;20208;-70
2022/03/21 05:55:45;;;;;;;26.43;13.63;;;;;;;3.13;60.81;-23903.56;5090012;28;20169;-70
2022/03/21 05:58:12;;;;;;;27.57;13.90;;;;;;;3.31;60.02;-23908.72;5090670;28;20708;-70
2022/03/21 06:00:38;;;;;;;29.03;15.50;;;;;;;3.43;59.39;-23912.13;5090476;28;20294;-70
2022/03/21 06:03:04;;;;;;;28.57;14.07;;;;;;;3.07;58.63;-23901.84;5090849;28;20204;-70
2022/03/21 06:05:30;;;;;;;29.50;15.23;;;;;;;3.16;57.73;-23904.44;5089654;28;20652;-71
2022/03/21 06:07:56;;;;;;;25.67;14.17;;;;;;;3.49;57.29;-23913.84;5090662;28;20173;-70
2022/03/21 06:10:22;;;;;;;28.53;14.87;;;;;;;3.76;57.51;-23921.25;5090594;28;20303;-70
2022/03/21 06:12:49;;;;;;;27.80;15.27;;;;;;;3.71;56.83;-23919.97;5090434;28;20247;-69
2022/03/21 06:15:15;;;;;;;25.90;15.90;;;;;;;3.39;55.91;-23910.84;5091284;28;20253;-70
2022/03/21 06:17:43;;;;;;;23.10;14.40;;;;;;;3.58;54.99;-23916.13;5090956;28;20205;-70
2022/03/21 06:20:13;;;;;;;27.80;14.80;;;;;;;4.12;55.11;-23931.50;5072231;28;20180;-70
2022/03/21 06:22:39;;;;;;;26.27;15.03;;;;;;;4.21;53.73;-23934.06;5090332;28;20241;-69
2022/03/21 06:25:06;;;;;;;28.47;15.23;;;;;;;4.36;52.76;-23938.19;5090004;28;20193;-70
2022/03/21 06:27:34;;;;;;;26.77;15.73;;;;;;;4.06;52.44;-23929.66;5088925;28;20235;-70
2022/03/21 06:30:01;;;;;;;28.87;14.77;;;;;;;4.34;52.07;-23937.78;5087402;28;20225;-70
2022/03/21 06:32:27;;;;;;;27.50;14.97;;;;;;;4.16;52.87;-23932.63;5087585;28;20222;-70
2022/03/21 06:34:52;;;;;;;25.20;14.63;;;;;;;4.09;51.62;-23930.66;5083267;28;20287;-71
2022/03/21 06:37:19;;;;;;;26.07;15.17;;;;;;;4.57;51.97;-23944.19;5071170;28;20174;-69
2022/03/21 06:39:45;;;;;;;23.47;14.50;;;;;;;4.58;50.77;-23944.31;5086317;28;20227;-70
2022/03/21 06:42:11;;;;;;;25.87;15.20;;;;;;;4.78;50.30;-23950.00;5094298;28;20189;-71
2022/03/21 06:44:37;;;;;;;24.27;14.97;;;;;;;4.91;49.40;-23953.72;5094119;28;20176;-69
2022/03/21 06:47:03;;;;;;;27.37;13.73;;;;;;;4.88;48.95;-23952.84;5094211;28;20674;-69
2022/03/21 06:49:30;;;;;;;25.50;13.57;;;;;;;4.92;49.38;-23954.00;5094037;28;20166;-69
2022/03/21 06:52:02;;;;;;;24.47;13.83;;;;;;;5.23;48.63;-23962.66;5093813;28;20277;-69
2022/03/21 06:54:30;;;;;;;24.33;13.90;;;;;;;5.38;47.10;-23966.78;5094095;28;20169;-70
2022/03/21 06:56:56;;;;;;;25.60;13.93;;;;;;;5.39;47.13;-23967.22;5093317;28;20600;-71
2022/03/21 06:59:23;;;;;;;21.73;13.27;;;;;;;5.15;46.29;-23960.53;5093836;28;20185;-69
2022/03/21 07:01:49;;;;;;;22.27;13.17;;;;;;;6.08;46.17;-23986.56;5086080;28;20182;-69
2022/03/21 07:04:14;;;;;;;22.10;13.03;;;;;;;5.60;45.51;-23973.19;5073231;28;20267;-71
2022/03/21 07:06:40;;;;;;;21.90;13.60;;;;;;;6.09;45.88;-23986.97;5086219;28;20652;-70
2022/03/21 07:09:05;;;;;;;23.73;12.77;;;;;;;6.22;43.63;-23990.66;5092675;28;20173;-70
2022/03/21 07:11:34;;;;;;;21.63;12.60;;;;;;;6.33;43.35;-23993.66;5090551;28;20823;-70
2022/03/21 07:14:00;;;;;;;20.83;11.40;;;;;;;6.25;42.58;-23991.22;5093676;28;20421;-69
2022/03/21 07:16:25;;;;;;;18.13;12.13;;;;;;;6.51;41.82;-23998.63;5081571;28;20696;-69
2022/03/21 07:18:51;;;;;;;20.23;12.43;;;;;;;6.88;41.83;-24008.97;5072603;28;20174;-69
2022/03/21 07:21:16;;;;;;;23.07;12.60;;;;;;;6.96;42.15;-24011.38;5089377;28;20245;-70
2022/03/21 07:23:42;;;;;;;24.40;12.80;;;;;;;7.10;40.97;-24015.34;5093459;28;20172;-70
2022/03/21 07:26:08;;;;;;;21.03;13.37;;;;;;;6.86;40.91;-24008.56;5093436;28;20166;-70
2022/03/21 07:28:33;;;;;;;21.53;13.20;;;;;;;6.76;40.82;-24005.56;5093246;28;20181;-69
2022/03/21 07:30:59;;;;;;;20.33;12.47;;;;;;;6.43;39.97;-23996.50;5093322;28;20177;-70
2022/03/21 07:33:24;;;;;;;35.77;12.97;;;;;;;7.04;40.49;-24013.66;5075057;28;20711;-69
2022/03/21 07:35:51;;;;;;;20.07;12.37;;;;;;;7.04;39.80;-24013.66;5092730;28;20636;-70
2022/03/21 07:38:19;;;;;;;21.57;12.70;;;;;;;7.75;38.98;-24033.38;5093388;28;20248;-69
2022/03/21 07:40:46;;;;;;;21.63;12.43;;;;;;;7.73;38.93;-24032.78;5093682;28;20169;-70
2022/03/21 07:43:12;;;;;;;21.47;13.20;;;;;;;7.52;39.23;-24026.97;5093460;28;20594;-70
2022/03/21 07:48:23;;;;;;;19.53;12.40;;;;;;;8.08;38.34;-24042.72;5092691;28;20211;-70
2022/03/21 07:50:48;;;;;;;18.27;12.27;;;;;;;7.88;36.86;-24037.03;5093235;28;20555;-71
2022/03/21 07:53:13;;;;;;;21.80;12.40;;;;;;;8.13;37.09;-24044.13;5093048;28;20201;-70
2022/03/21 07:55:39;;;;;;;17.83;11.87;;;;;;;8.18;36.40;-24045.53;5092533;28;20173;-70
2022/03/21 07:58:04;;;;;;;19.90;12.57;;;;;;;7.90;37.37;-24037.75;5092350;28;20234;-69
2022/03/21 08:00:33;;;;;;;21.50;12.53;;;;;;;8.62;36.56;-24057.88;5092493;28;20169;-70
2022/03/21 08:02:59;;;;;;;20.80;13.20;;;;;;;8.58;35.96;-24056.59;5092482;28;20500;-71
2022/03/21 08:05:26;;;;;;;18.60;12.13;;;;;;;8.50;35.60;-24054.47;5091279;28;20170;-70
2022/03/21 08:07:52;;;;;;;23.37;12.53;;;;;;;8.07;35.57;-24042.28;5089567;28;20169;-73
2022/03/21 08:10:19;;;;;;;21.00;12.63;;;;;;;8.16;35.58;-24044.97;5082713;28;20236;-70
2022/03/21 08:12:46;;;;;;;19.57;12.13;;;;;;;8.23;36.15;-24046.97;5082558;28;20686;-70
2022/03/21 08:15:13;;;;;;;21.73;12.80;;;;;;;8.66;35.41;-24058.84;5077839;28;20181;-70
2022/03/21 08:18:03;;;;;;;21.73;13.00;;;;;;;8.00;35.29;-24040.44;5089327;28;20192;-69
2022/03/21 08:20:33;;;;;;;18.30;11.47;;;;;;;7.80;35.61;-24034.91;5087578;28;20185;-71
2022/03/21 08:23:05;;;;;;;18.83;12.17;;;;;;;7.83;35.77;-24035.78;5072397;28;20223;-70
2022/03/21 08:25:31;;;;;;;19.13;11.73;;;;;;;7.56;35.68;-24028.13;5072303;28;20265;-70
2022/03/21 08:27:57;;;;;;;18.70;12.27;;;;;;;7.78;35.41;-24034.34;5072033;28;20308;-70
2022/03/21 08:30:22;;;;;;;22.90;12.00;;;;;;;7.73;35.66;-24032.94;5072625;28;20190;-70
2022/03/21 08:32:49;;;;;;;20.63;11.50;;;;;;;8.51;34.61;-24054.75;5072607;28;20198;-71
2022/03/21 08:35:16;;;;;;;21.27;12.03;;;;;;;8.73;34.12;-24060.97;5072381;28;20177;-70
2022/03/21 08:37:42;;;;;;;18.70;11.70;;;;;;;8.75;34.40;-24061.53;5072131;28;20186;-71
2022/03/21 08:40:08;;;;;;;17.53;10.97;;;;;;;8.59;35.04;-24057.00;5054208;28;20186;-69
2022/03/21 08:42:34;;;;;;;18.73;11.57;;;;;;;7.85;36.05;-24036.19;5071899;28;20303;-70
2022/03/21 08:44:59;;;;;;;21.63;11.90;;;;;;;8.38;34.49;-24051.06;5072057;28;20643;-69
2022/03/21 08:47:25;;;;;;;19.80;11.53;;;;;;;8.50;34.64;-24054.31;5072089;28;20210;-70
2022/03/21 08:49:50;;;;;;;21.37;11.67;;;;;;;8.32;36.07;-24049.50;5072228;28;20182;-70
2022/03/21 08:52:16;;;;;;;19.00;11.43;;;;;;;8.52;34.86;-24055.03;5072207;28;20196;-70
2022/03/21 08:54:41;;;;;;;19.73;12.00;;;;;;;8.63;35.00;-24058.00;5071414;28;20304;-70
2022/03/21 08:57:07;;;;;;;18.70;11.63;;;;;;;8.72;34.37;-24060.69;5071136;28;20307;-70
2022/03/21 08:59:33;;;;;;;17.67;11.70;;;;;;;8.66;34.87;-24059.00;5071221;28;20323;-70
2022/03/21 09:01:59;;;;;;;17.97;11.73;;;;;;;8.72;34.39;-24060.56;5071549;28;20166;-69
2022/03/21 09:04:24;;;;;;;22.50;12.43;;;;;;;8.76;34.09;-24061.81;5071824;28;20174;-70
2022/03/21 09:06:50;;;;;;;18.67;11.87;;;;;;;9.48;32.97;-24081.75;5071458;28;20361;-70
2022/03/21 09:09:17;;;;;;;18.20;11.83;;;;;;;9.10;32.74;-24071.31;5070861;28;20267;-71
2022/03/21 09:11:43;;;;;;;17.97;11.27;;;;;;;9.65;33.10;-24086.72;5070981;28;20260;-71
2022/03/21 09:14:09;;;;;;;19.40;11.10;;;;;;;9.95;32.63;-24094.91;5071241;28;20173;-70
2022/03/21 09:16:38;;;;;;;16.97;11.17;;;;;;;9.98;32.53;-24095.75;5071511;28;20176;-70
2022/03/21 09:19:03;;;;;;;18.33;11.27;;;;;;;9.86;31.93;-24092.50;5071148;28;20644;-70
2022/03/21 09:21:29;;;;;;;18.33;10.77;;;;;;;9.20;32.36;-24074.13;5070872;28;20253;-69
2022/03/21 09:23:54;;;;;;;15.50;10.90;;;;;;;9.37;32.60;-24078.66;5070933;28;20224;-70
2022/03/21 09:26:21;;;;;;;15.33;10.43;;;;;;;8.97;32.96;-24067.63;5071452;28;20396;-72
2022/03/21 09:28:48;;;;;;;17.27;10.90;;;;;;;9.14;33.75;-24072.28;5071515;28;20170;-69
2022/03/21 09:31:14;;;;;;;15.87;10.60;;;;;;;9.22;33.22;-24074.69;5071658;28;20184;-69
2022/03/21 09:33:41;;;;;;;17.33;10.20;;;;;;;9.52;33.17;-24082.91;5071114;28;20208;-70
2022/03/21 09:36:07;;;;;;;21.30;11.37;;;;;;;9.51;32.28;-24082.75;5071217;28;20174;-70
2022/03/21 09:38:34;;;;;;;16.13;11.23;;;;;;;9.41;32.39;-24079.78;5071197;28;20182;-70
2022/03/21 09:41:01;;;;;;;15.80;10.90;;;;;;;9.32;33.10;-24077.53;5071593;28;20217;-69
2022/03/21 09:43:29;;;;;;;16.07;10.43;;;;;;;8.80;34.17;-24062.94;5071640;28;20163;-70
2022/03/21 09:45:57;;;;;;;18.10;10.63;;;;;;;8.69;34.42;-24059.84;5071308;28;20227;-70
2022/03/21 09:48:23;;;;;;;17.20;10.97;;;;;;;9.13;34.43;-24072.16;5071328;28;20201;-70
2022/03/21 09:50:51;;;;;;;21.37;11.73;;;;;;;9.26;34.37;-24075.81;5071225;28;20197;-71
2022/03/21 09:53:16;;;;;;;17.47;10.03;;;;;;;8.78;33.14;-24062.38;5070394;28;20209;-71
2022/03/21 09:55:43;;;;;;;27.37;10.63;;;;;;;9.06;33.74;-24070.03;5070325;28;20277;-71
2022/03/21 09:58:10;;;;;;;18.23;10.33;;;;;;;9.17;32.92;-24073.13;5052613;28;20216;-70
2022/03/21 10:00:38;;;;;;;15.73;9.50;;;;;;;8.80;33.87;-24062.94;5071439;28;20610;-72
2022/03/21 10:03:04;;;;;;;13.93;9.47;;;;;;;8.85;33.05;-24064.22;5071042;28;20181;-69
2022/03/21 10:05:41;;;;;;;16.17;10.13;;;;;;;8.41;33.31;-24051.91;5071071;28;20621;-71
2022/03/21 10:08:23;;;;;;;15.93;9.87;;;;;;;8.52;33.49;-24055.03;5071007;28;20169;-67
2022/03/21 10:10:55;;;;;;;17.23;10.53;;;;;;;8.38;34.55;-24051.06;5085637;28;20354;-64
2022/03/21 10:13:22;;;;;;;15.73;10.73;;;;;;;8.57;34.87;-24056.44;5093761;28;20189;-62
2022/03/21 10:15:49;;;;;;;16.90;10.23;;;;;;;8.84;34.24;-24064.09;5094799;28;20168;-63
2022/03/21 10:18:15;;;;;;;16.50;10.60;;;;;;;8.78;34.69;-24062.38;5094331;28;20231;-64
2022/03/21 10:20:41;;;;;;;17.03;10.90;;;;;;;9.42;35.90;-24080.22;5094642;28;20192;-64
2022/03/21 10:23:22;;;;;;;15.70;10.47;;;;;;;9.76;33.57;-24089.81;5094470;28;20515;-65
2022/03/21 10:25:48;;;;;;;17.20;11.37;;;;;;;9.30;32.87;-24076.81;5094415;28;20169;-63
2022/03/21 10:28:37;;;;;;;17.83;10.60;;;;;;;9.22;33.57;-24074.56;5094227;28;20166;-65
2022/03/21 10:31:04;;;;;;;15.63;10.03;;;;;;;9.11;33.46;-24071.59;5094344;28;20169;-64
2022/03/21 10:33:30;;;;;;;15.40;9.97;;;;;;;9.32;34.42;-24077.53;5094174;28;20581;-66
2022/03/21 10:35:56;;;;;;;17.67;10.83;;;;;;;9.07;32.92;-24070.44;5094586;28;20170;-65
2022/03/21 10:38:33;;;;;;;15.63;10.13;;;;;;;9.27;32.67;-24075.97;5093885;28;20180;-66
2022/03/21 10:41:05;;;;;;;14.53;10.10;;;;;;;9.38;33.08;-24079.06;5093514;28;20184;-64
2022/03/21 10:43:31;;;;;;;18.13;10.60;;;;;;;9.91;32.28;-24093.78;5093976;28;20179;-65
2022/03/21 10:45:57;;;;;;;15.10;10.13;;;;;;;9.95;32.32;-24094.91;5093258;28;20261;-63
2022/03/21 10:48:29;;;;;;;19.50;10.77;;;;;;;9.34;32.73;-24077.81;5093676;28;20264;-63
2022/03/21 10:50:56;;;;;;;20.33;10.77;;;;;;;9.41;32.50;-24079.91;5093968;28;20248;-63
2022/03/21 10:53:50;;;;;;;15.07;9.20;;;;;;;9.69;32.76;-24087.84;5093639;28;20203;-63
2022/03/21 10:56:16;;;;;;;14.80;9.70;;;;;;;8.98;32.73;-24067.75;5091150;28;20205;-66
2022/03/21 10:58:44;;;;;;;17.07;9.63;;;;;;;9.91;32.25;-24093.91;5093873;28;20268;-65
2022/03/21 11:01:16;;;;;;;14.40;9.30;;;;;;;10.00;33.37;-24096.31;5094198;28;20261;-65
2022/03/21 11:03:44;;;;;;;15.70;9.87;;;;;;;10.26;33.49;-24103.66;5093963;28;20168;-64
2022/03/21 11:06:13;;;;;;;16.13;10.00;;;;;;;10.29;33.15;-24104.50;5093311;28;20212;-62
2022/03/21 11:08:39;;;;;;;13.40;9.47;;;;;;;10.50;32.67;-24110.44;5093870;28;20173;-64
2022/03/21 11:11:05;;;;;;;15.57;9.63;;;;;;;11.11;31.05;-24127.22;5093985;28;20217;-63
2022/03/21 11:13:32;;;;;;;15.63;9.33;;;;;;;10.89;32.45;-24121.28;5093820;28;20193;-63
2022/03/21 11:15:58;;;;;;;13.17;9.37;;;;;;;10.82;31.91;-24119.31;5093651;28;20260;-64
2022/03/21 11:18:26;;;;;;;16.00;9.20;;;;;;;10.83;30.75;-24119.59;5093295;28;20198;-65
2022/03/21 11:20:52;;;;;;;15.00;9.33;;;;;;;9.94;31.80;-24094.63;5092988;28;20181;-66
2022/03/21 11:23:19;;;;;;;13.13;9.00;;;;;;;9.67;32.04;-24087.28;5092109;28;20200;-65
2022/03/21 11:25:56;;;;;;;21.10;8.73;;;;;;;9.80;32.22;-24090.81;5092106;28;20180;-64
2022/03/21 11:28:54;;;;;;;16.47;9.37;;;;;;;9.89;32.09;-24093.22;5092869;28;20165;-64
2022/03/21 11:31:44;;;;;;;13.97;8.97;;;;;;;9.53;31.57;-24083.16;5051121;28;20189;-65
2022/03/21 11:34:19;;;;;;;13.00;9.30;;;;;;;9.66;31.48;-24086.84;5074823;28;20201;-66
2022/03/21 11:36:55;;;;;;;13.27;8.90;;;;;;;9.50;nan;-24082.47;5093315;28;20252;-65